Time,TemperatureF,DewpointF,PressureIn,WindDirection,WindDirectionDegrees,WindSpeedMPH,WindSpeedGustMPH,Humidity,HourlyPrecipIn,Conditions,Clouds,dailyrainin,SoftwareType,DateUTC
2013-10-16 00:04:00,48.0,48.0,-100.00,West,265,2.0,7.0,99,-99.99,,,-99.99,,2013-10-16 05:04:00,
2013-10-16 00:22:00,48.0,48.0,-100.00,WNW,295,2.0,5.0,99,-99.99,,,-99.99,,2013-10-16 05:22:00,
2013-10-16 00:34:00,48.0,48.0,-100.00,WNW,295,2.0,5.0,99,-99.99,,,-99.99,,2013-10-16 05:34:00,
2013-10-16 00:43:00,48.0,48.0,-100.00,WNW,295,2.0,5.0,99,-99.99,,,-99.99,,2013-10-16 05:43:00,
2013-10-16 00:53:00,48.0,48.0,-100.00,WNW,295,2.0,5.0,99,-99.99,,,-99.99,,2013-10-16 05:53:00,
2013-10-16 01:03:00,48.0,48.0,-100.00,WNW,295,2.0,5.0,99,-99.99,,,-99.99,,2013-10-16 06:03:00,
2013-10-16 01:43:00,48.0,48.0,-100.00,WSW,250,2.0,4.0,99,-99.99,,,-99.99,,2013-10-16 06:43:00,
2013-10-16 01:52:00,48.0,48.0,-100.00,WSW,250,2.0,4.0,99,-99.99,,,-99.99,,2013-10-16 06:52:00,
2013-10-16 02:02:00,48.0,48.0,-100.00,WSW,250,2.0,4.0,99,-99.99,,,-99.99,,2013-10-16 07:02:00,
2013-10-16 02:22:00,48.0,48.0,-100.00,NE,35,4.0,7.0,99,-99.99,,,-99.99,,2013-10-16 07:22:00,
2013-10-16 02:32:00,48.0,48.0,-100.00,NE,35,4.0,7.0,99,-99.99,,,-99.99,,2013-10-16 07:32:00,
2013-10-16 02:42:00,48.0,48.0,-100.00,NE,35,4.0,7.0,99,-99.99,,,-99.99,,2013-10-16 07:42:00,
2013-10-16 02:53:00,48.0,48.0,-100.00,NE,35,4.0,7.0,99,-99.99,,,-99.99,,2013-10-16 07:53:00,
2013-10-16 03:02:00,48.0,48.0,-100.00,NE,35,4.0,7.0,99,-99.99,,,-99.99,,2013-10-16 08:02:00,
2013-10-16 03:42:00,46.0,46.0,-100.00,NNE,25,7.0,14.0,99,-99.99,,,-99.99,,2013-10-16 08:42:00,
2013-10-16 03:52:00,46.0,46.0,-100.00,NNE,25,7.0,14.0,99,-99.99,,,-99.99,,2013-10-16 08:52:00,
2013-10-16 04:02:00,46.0,46.0,-100.00,NNE,25,7.0,14.0,99,-99.99,,,-99.99,,2013-10-16 09:02:00,
2013-10-16 04:43:00,45.0,44.0,-100.00,North,5,9.0,17.0,99,-99.99,,,-99.99,,2013-10-16 09:43:00,
2013-10-16 04:54:00,45.0,44.0,-100.00,North,5,9.0,17.0,99,-99.99,,,-99.99,,2013-10-16 09:54:00,
2013-10-16 05:03:00,45.0,44.0,-100.00,North,5,9.0,17.0,99,-99.99,,,-99.99,,2013-10-16 10:03:00,
2013-10-16 05:42:00,44.0,43.0,-100.00,North,0,7.0,17.0,99,-99.99,,,-99.99,,2013-10-16 10:42:00,
2013-10-16 05:53:00,44.0,43.0,-100.00,North,0,7.0,17.0,99,-99.99,,,-99.99,,2013-10-16 10:53:00,
2013-10-16 06:03:00,44.0,43.0,-100.00,North,0,7.0,17.0,99,-99.99,,,-99.99,,2013-10-16 11:03:00,
2013-10-16 06:42:00,44.0,43.0,-100.00,North,10,6.0,12.0,99,-99.99,,,-99.99,,2013-10-16 11:42:00,
2013-10-16 06:52:00,44.0,43.0,-100.00,North,10,6.0,12.0,99,-99.99,,,-99.99,,2013-10-16 11:52:00,
2013-10-16 07:02:00,44.0,43.0,-100.00,North,10,6.0,12.0,99,-99.99,,,-99.99,,2013-10-16 12:02:00,
2013-10-16 07:43:00,43.0,43.0,-100.00,North,10,8.0,13.0,99,-99.99,,,-99.99,,2013-10-16 12:43:00,
2013-10-16 07:52:00,43.0,43.0,-100.00,North,10,8.0,13.0,99,-99.99,,,-99.99,,2013-10-16 12:52:00,
2013-10-16 08:01:00,43.0,43.0,-100.00,North,10,8.0,13.0,99,-99.99,,,-99.99,,2013-10-16 13:01:00,
2013-10-16 08:42:00,43.0,43.0,-100.00,North,10,6.0,12.0,99,-99.99,,,-99.99,,2013-10-16 13:42:00,
2013-10-16 08:52:00,43.0,43.0,-100.00,North,10,6.0,12.0,99,-99.99,,,-99.99,,2013-10-16 13:52:00,
2013-10-16 09:01:00,43.0,43.0,-100.00,North,10,6.0,12.0,99,-99.99,,,-99.99,,2013-10-16 14:01:00,
2013-10-16 09:42:00,42.0,42.0,-100.00,North,350,10.0,17.0,99,-99.99,,,-99.99,,2013-10-16 14:42:00,
2013-10-16 09:52:00,42.0,42.0,-100.00,North,350,10.0,17.0,99,-99.99,,,-99.99,,2013-10-16 14:52:00,
2013-10-16 10:02:00,42.0,42.0,-100.00,North,350,10.0,17.0,99,-99.99,,,-99.99,,2013-10-16 15:02:00,
2013-10-16 10:43:00,41.0,41.0,-100.00,North,0,7.0,14.0,99,-99.99,,,-99.99,,2013-10-16 15:43:00,
2013-10-16 10:53:00,41.0,41.0,-100.00,North,0,7.0,14.0,99,-99.99,,,-99.99,,2013-10-16 15:53:00,
2013-10-16 11:03:00,41.0,41.0,-100.00,North,0,7.0,14.0,99,-99.99,,,-99.99,,2013-10-16 16:03:00,
2013-10-16 11:42:00,41.0,40.0,-100.00,North,350,7.0,14.0,99,-99.99,,,-99.99,,2013-10-16 16:42:00,
2013-10-16 11:53:00,41.0,40.0,-100.00,North,350,7.0,14.0,99,-99.99,,,-99.99,,2013-10-16 16:53:00,
2013-10-16 12:02:00,41.0,40.0,-100.00,North,350,7.0,14.0,99,-99.99,,,-99.99,,2013-10-16 17:02:00,
2013-10-16 12:43:00,41.0,40.0,-100.00,North,10,8.0,14.0,97,-99.99,,,-99.99,,2013-10-16 17:43:00,
2013-10-16 12:52:00,41.0,40.0,-100.00,North,10,8.0,14.0,97,-99.99,,,-99.99,,2013-10-16 17:52:00,
2013-10-16 13:02:00,41.0,40.0,-100.00,North,10,8.0,14.0,97,-99.99,,,-99.99,,2013-10-16 18:02:00,
2013-10-16 13:22:00,42.0,39.0,-100.00,North,350,7.0,12.0,91,-99.99,,,-99.99,,2013-10-16 18:22:00,
2013-10-16 13:32:00,42.0,39.0,-100.00,North,350,7.0,12.0,91,-99.99,,,-99.99,,2013-10-16 18:32:00,
2013-10-16 13:42:00,42.0,39.0,-100.00,North,350,7.0,12.0,91,-99.99,,,-99.99,,2013-10-16 18:42:00,
2013-10-16 13:52:00,42.0,39.0,-100.00,North,350,7.0,12.0,91,-99.99,,,-99.99,,2013-10-16 18:52:00,
2013-10-16 14:02:00,42.0,39.0,-100.00,North,350,7.0,12.0,91,-99.99,,,-99.99,,2013-10-16 19:02:00,
2013-10-16 14:42:00,42.0,39.0,-100.00,North,350,7.0,11.0,88,-99.99,,,-99.99,,2013-10-16 19:42:00,
2013-10-16 14:52:00,42.0,39.0,-100.00,North,350,7.0,11.0,88,-99.99,,,-99.99,,2013-10-16 19:52:00,
2013-10-16 15:03:00,42.0,39.0,-100.00,North,350,7.0,11.0,88,-99.99,,,-99.99,,2013-10-16 20:03:00,
2013-10-16 15:43:00,43.0,38.0,-100.00,NNW,340,5.0,12.0,85,-99.99,,,-99.99,,2013-10-16 20:43:00,
2013-10-16 15:52:00,43.0,38.0,-100.00,NNW,340,5.0,12.0,85,-99.99,,,-99.99,,2013-10-16 20:52:00,
2013-10-16 16:02:00,43.0,38.0,-100.00,NNW,340,5.0,12.0,85,-99.99,,,-99.99,,2013-10-16 21:02:00,
2013-10-16 16:03:00,44.0,37.0,-100.00,North,350,4.0,7.0,77,-99.99,,,-99.99,,2013-10-16 21:03:00,
2013-10-16 16:23:00,44.0,37.0,-100.00,North,350,4.0,7.0,77,-99.99,,,-99.99,,2013-10-16 21:23:00,
2013-10-16 16:34:00,44.0,37.0,-100.00,North,350,4.0,7.0,77,-99.99,,,-99.99,,2013-10-16 21:34:00,
2013-10-16 16:44:00,44.0,37.0,-100.00,North,350,4.0,7.0,77,-99.99,,,-99.99,,2013-10-16 21:44:00,
2013-10-16 16:54:00,44.0,37.0,-100.00,North,350,4.0,7.0,77,-99.99,,,-99.99,,2013-10-16 21:54:00,
2013-10-16 17:24:00,44.0,37.0,-100.00,NW,305,4.0,8.0,77,-99.99,,,-99.99,,2013-10-16 22:24:00,
2013-10-16 17:33:00,44.0,37.0,-100.00,NW,305,4.0,8.0,77,-99.99,,,-99.99,,2013-10-16 22:33:00,
2013-10-16 17:42:00,44.0,37.0,-100.00,NW,305,4.0,8.0,77,-99.99,,,-99.99,,2013-10-16 22:42:00,
2013-10-16 17:54:00,44.0,37.0,-100.00,NW,305,4.0,8.0,77,-99.99,,,-99.99,,2013-10-16 22:54:00,
2013-10-16 18:02:00,44.0,37.0,-100.00,NW,305,4.0,8.0,77,-99.99,,,-99.99,,2013-10-16 23:02:00,
2013-10-16 18:42:00,43.0,35.0,-100.00,NW,310,3.0,6.0,74,-99.99,,,-99.99,,2013-10-16 23:42:00,
2013-10-16 18:53:00,43.0,35.0,-100.00,NW,310,3.0,6.0,74,-99.99,,,-99.99,,2013-10-16 23:53:00,
2013-10-16 19:02:00,43.0,35.0,-100.00,NW,310,3.0,6.0,74,-99.99,,,-99.99,,2013-10-17 00:02:00,
2013-10-16 19:42:00,42.0,37.0,-100.00,WNW,285,0.0,4.0,82,-99.99,,,-99.99,,2013-10-17 00:42:00,
2013-10-16 19:52:00,42.0,37.0,-100.00,WNW,285,0.0,4.0,82,-99.99,,,-99.99,,2013-10-17 00:52:00,
2013-10-16 20:02:00,42.0,37.0,-100.00,WNW,285,0.0,4.0,82,-99.99,,,-99.99,,2013-10-17 01:02:00,
2013-10-16 20:43:00,40.0,36.0,-100.00,WNW,300,1.0,3.0,85,-99.99,,,-99.99,,2013-10-17 01:43:00,
2013-10-16 20:52:00,40.0,36.0,-100.00,WNW,300,1.0,3.0,85,-99.99,,,-99.99,,2013-10-17 01:52:00,
2013-10-16 21:03:00,40.0,36.0,-100.00,WNW,300,1.0,3.0,85,-99.99,,,-99.99,,2013-10-17 02:03:00,
2013-10-16 22:04:00,32.0,31.0,-100.00,West,265,0.0,0.0,96,-99.99,,,-99.99,,2013-10-17 03:04:00,
2013-10-16 22:45:00,32.0,31.0,-100.00,West,265,0.0,0.0,96,-99.99,,,-99.99,,2013-10-17 03:45:00,
2013-10-16 22:54:00,32.0,31.0,-100.00,West,265,0.0,0.0,96,-99.99,,,-99.99,,2013-10-17 03:54:00,
2013-10-16 23:04:00,31.0,30.0,-100.00,WNW,290,0.0,0.0,97,-99.99,,,-99.99,,2013-10-17 04:04:00,
2013-10-16 23:43:00,31.0,30.0,-100.00,WNW,290,0.0,0.0,97,-99.99,,,-99.99,,2013-10-17 04:43:00,
2013-10-16 23:54:00,31.0,30.0,-100.00,WNW,290,0.0,0.0,97,-99.99,,,-99.99,,2013-10-17 04:54:00,